sensor_id;sensor_type;location;lat;lon;timestamp;P1;durP1;ratioP1;P2;durP2;ratioP2
22250;SDS011;59348;52.158;5.588;2023-03-31T00:00:29;16.90;;;3.78;;
22250;SDS011;59348;52.158;5.588;2023-03-31T00:02:57;20.30;;;3.70;;
22250;SDS011;59348;52.158;5.588;2023-03-31T00:05:24;17.35;;;3.45;;
22250;SDS011;59348;52.158;5.588;2023-03-31T00:07:52;16.05;;;3.60;;
22250;SDS011;59348;52.158;5.588;2023-03-31T00:10:25;13.02;;;3.50;;
22250;SDS011;59348;52.158;5.588;2023-03-31T00:12:54;14.13;;;3.80;;
22250;SDS011;59348;52.158;5.588;2023-03-31T00:15:21;15.98;;;3.45;;
22250;SDS011;59348;52.158;5.588;2023-03-31T00:17:48;14.05;;;3.50;;
22250;SDS011;59348;52.158;5.588;2023-03-31T00:20:16;14.50;;;3.55;;
22250;SDS011;59348;52.158;5.588;2023-03-31T00:22:43;16.17;;;4.00;;
22250;SDS011;59348;52.158;5.588;2023-03-31T00:25:11;13.35;;;3.13;;
22250;SDS011;59348;52.158;5.588;2023-03-31T00:27:40;14.65;;;3.50;;
22250;SDS011;59348;52.158;5.588;2023-03-31T00:30:11;15.20;;;3.90;;
22250;SDS011;59348;52.158;5.588;2023-03-31T00:32:38;13.70;;;3.45;;
22250;SDS011;59348;52.158;5.588;2023-03-31T00:35:07;16.77;;;4.05;;
22250;SDS011;59348;52.158;5.588;2023-03-31T00:37:34;12.63;;;3.42;;
22250;SDS011;59348;52.158;5.588;2023-03-31T00:40:02;11.13;;;3.08;;
22250;SDS011;59348;52.158;5.588;2023-03-31T00:42:37;12.25;;;3.22;;
22250;SDS011;59348;52.158;5.588;2023-03-31T00:47:49;12.82;;;3.10;;
22250;SDS011;59348;52.158;5.588;2023-03-31T00:50:19;14.30;;;3.45;;
22250;SDS011;59348;52.158;5.588;2023-03-31T00:52:46;14.60;;;3.45;;
22250;SDS011;59348;52.158;5.588;2023-03-31T00:55:16;8.38;;;2.90;;
22250;SDS011;59348;52.158;5.588;2023-03-31T00:57:44;10.77;;;3.13;;
22250;SDS011;59348;52.158;5.588;2023-03-31T01:00:13;10.30;;;3.00;;
22250;SDS011;59348;52.158;5.588;2023-03-31T01:02:41;14.63;;;3.92;;
22250;SDS011;59348;52.158;5.588;2023-03-31T01:05:17;14.93;;;3.90;;
22250;SDS011;59348;52.158;5.588;2023-03-31T01:07:47;14.07;;;3.22;;
22250;SDS011;59348;52.158;5.588;2023-03-31T01:10:15;14.95;;;3.13;;
22250;SDS011;59348;52.158;5.588;2023-03-31T01:12:43;17.38;;;3.50;;
22250;SDS011;59348;52.158;5.588;2023-03-31T01:15:11;12.95;;;3.30;;
22250;SDS011;59348;52.158;5.588;2023-03-31T01:17:38;9.30;;;3.38;;
22250;SDS011;59348;52.158;5.588;2023-03-31T01:20:09;10.40;;;3.45;;
22250;SDS011;59348;52.158;5.588;2023-03-31T01:22:50;12.60;;;3.33;;
22250;SDS011;59348;52.158;5.588;2023-03-31T01:25:30;13.35;;;3.50;;
22250;SDS011;59348;52.158;5.588;2023-03-31T01:28:06;14.43;;;3.25;;
22250;SDS011;59348;52.158;5.588;2023-03-31T01:30:40;11.23;;;3.20;;
22250;SDS011;59348;52.158;5.588;2023-03-31T01:41:21;14.18;;;3.58;;
22250;SDS011;59348;52.158;5.588;2023-03-31T01:43:51;9.65;;;3.58;;
22250;SDS011;59348;52.158;5.588;2023-03-31T01:46:24;15.25;;;4.25;;
22250;SDS011;59348;52.158;5.588;2023-03-31T01:48:57;14.77;;;4.03;;
22250;SDS011;59348;52.158;5.588;2023-03-31T01:51:27;12.45;;;4.00;;
22250;SDS011;59348;52.158;5.588;2023-03-31T01:53:59;12.63;;;3.83;;
22250;SDS011;59348;52.158;5.588;2023-03-31T01:56:31;12.90;;;4.15;;
22250;SDS011;59348;52.158;5.588;2023-03-31T01:58:59;10.05;;;3.97;;
22250;SDS011;59348;52.158;5.588;2023-03-31T02:01:28;14.98;;;3.90;;
22250;SDS011;59348;52.158;5.588;2023-03-31T02:04:00;11.25;;;3.83;;
22250;SDS011;59348;52.158;5.588;2023-03-31T02:06:32;13.40;;;3.58;;
22250;SDS011;59348;52.158;5.588;2023-03-31T02:09:01;10.85;;;3.60;;
22250;SDS011;59348;52.158;5.588;2023-03-31T02:11:30;14.85;;;3.97;;
22250;SDS011;59348;52.158;5.588;2023-03-31T02:13:59;10.52;;;3.55;;
22250;SDS011;59348;52.158;5.588;2023-03-31T02:16:28;13.60;;;3.67;;
22250;SDS011;59348;52.158;5.588;2023-03-31T02:18:57;15.98;;;3.92;;
22250;SDS011;59348;52.158;5.588;2023-03-31T02:21:27;14.15;;;3.55;;
22250;SDS011;59348;52.158;5.588;2023-03-31T02:23:55;14.65;;;3.75;;
22250;SDS011;59348;52.158;5.588;2023-03-31T02:26:23;10.13;;;3.55;;
22250;SDS011;59348;52.158;5.588;2023-03-31T02:28:54;14.98;;;4.05;;
22250;SDS011;59348;52.158;5.588;2023-03-31T02:31:24;10.30;;;3.30;;
22250;SDS011;59348;52.158;5.588;2023-03-31T02:33:51;12.88;;;3.55;;
22250;SDS011;59348;52.158;5.588;2023-03-31T02:36:19;15.48;;;3.80;;
22250;SDS011;59348;52.158;5.588;2023-03-31T02:38:48;9.45;;;2.80;;
22250;SDS011;59348;52.158;5.588;2023-03-31T02:41:16;13.15;;;3.25;;
22250;SDS011;59348;52.158;5.588;2023-03-31T02:43:44;10.05;;;3.33;;
22250;SDS011;59348;52.158;5.588;2023-03-31T02:46:12;18.45;;;3.92;;
22250;SDS011;59348;52.158;5.588;2023-03-31T02:48:40;13.10;;;4.00;;
22250;SDS011;59348;52.158;5.588;2023-03-31T02:51:19;13.88;;;3.63;;
22250;SDS011;59348;52.158;5.588;2023-03-31T02:53:54;11.48;;;3.40;;
22250;SDS011;59348;52.158;5.588;2023-03-31T02:56:26;12.43;;;4.03;;
22250;SDS011;59348;52.158;5.588;2023-03-31T02:59:04;13.88;;;3.67;;
22250;SDS011;59348;52.158;5.588;2023-03-31T03:01:38;14.35;;;4.38;;
22250;SDS011;59348;52.158;5.588;2023-03-31T03:04:10;14.32;;;3.72;;
22250;SDS011;59348;52.158;5.588;2023-03-31T03:06:41;10.60;;;3.30;;
22250;SDS011;59348;52.158;5.588;2023-03-31T03:09:15;11.90;;;3.45;;
22250;SDS011;59348;52.158;5.588;2023-03-31T03:11:48;16.38;;;3.53;;
22250;SDS011;59348;52.158;5.588;2023-03-31T03:14:21;10.95;;;2.90;;
22250;SDS011;59348;52.158;5.588;2023-03-31T03:16:52;8.15;;;2.25;;
22250;SDS011;59348;52.158;5.588;2023-03-31T03:19:21;11.02;;;2.60;;
22250;SDS011;59348;52.158;5.588;2023-03-31T03:21:49;9.05;;;2.88;;
22250;SDS011;59348;52.158;5.588;2023-03-31T03:24:16;9.48;;;2.67;;
22250;SDS011;59348;52.158;5.588;2023-03-31T03:26:44;8.60;;;2.70;;
22250;SDS011;59348;52.158;5.588;2023-03-31T03:29:12;9.05;;;2.35;;
22250;SDS011;59348;52.158;5.588;2023-03-31T03:31:39;9.35;;;2.38;;
22250;SDS011;59348;52.158;5.588;2023-03-31T03:34:08;12.88;;;2.53;;
22250;SDS011;59348;52.158;5.588;2023-03-31T03:36:36;9.52;;;2.78;;
22250;SDS011;59348;52.158;5.588;2023-03-31T03:39:04;10.90;;;2.80;;
22250;SDS011;59348;52.158;5.588;2023-03-31T03:41:32;10.15;;;2.80;;
22250;SDS011;59348;52.158;5.588;2023-03-31T03:44:00;12.07;;;2.92;;
22250;SDS011;59348;52.158;5.588;2023-03-31T03:46:27;14.32;;;3.25;;
22250;SDS011;59348;52.158;5.588;2023-03-31T03:48:54;11.18;;;3.22;;
22250;SDS011;59348;52.158;5.588;2023-03-31T03:51:23;11.93;;;3.60;;
22250;SDS011;59348;52.158;5.588;2023-03-31T03:53:50;17.60;;;3.72;;
22250;SDS011;59348;52.158;5.588;2023-03-31T03:56:17;12.02;;;3.22;;
22250;SDS011;59348;52.158;5.588;2023-03-31T03:58:46;12.57;;;3.15;;
22250;SDS011;59348;52.158;5.588;2023-03-31T04:01:13;12.50;;;3.08;;
22250;SDS011;59348;52.158;5.588;2023-03-31T04:03:40;10.88;;;2.80;;
22250;SDS011;59348;52.158;5.588;2023-03-31T04:06:08;11.93;;;2.78;;
22250;SDS011;59348;52.158;5.588;2023-03-31T04:08:36;10.48;;;2.50;;
22250;SDS011;59348;52.158;5.588;2023-03-31T04:11:08;7.85;;;2.25;;
22250;SDS011;59348;52.158;5.588;2023-03-31T04:13:37;11.30;;;2.13;;
22250;SDS011;59348;52.158;5.588;2023-03-31T04:16:05;9.27;;;2.05;;
22250;SDS011;59348;52.158;5.588;2023-03-31T04:18:32;6.50;;;2.05;;
22250;SDS011;59348;52.158;5.588;2023-03-31T04:21:01;7.50;;;2.17;;
22250;SDS011;59348;52.158;5.588;2023-03-31T04:23:29;8.32;;;2.17;;
22250;SDS011;59348;52.158;5.588;2023-03-31T04:25:58;8.20;;;2.33;;
22250;SDS011;59348;52.158;5.588;2023-03-31T04:28:26;10.25;;;2.25;;
22250;SDS011;59348;52.158;5.588;2023-03-31T04:30:58;8.20;;;2.42;;
22250;SDS011;59348;52.158;5.588;2023-03-31T04:33:26;7.03;;;2.00;;
22250;SDS011;59348;52.158;5.588;2023-03-31T04:35:54;9.23;;;2.08;;
22250;SDS011;59348;52.158;5.588;2023-03-31T04:38:21;13.02;;;2.78;;
22250;SDS011;59348;52.158;5.588;2023-03-31T04:40:51;5.82;;;2.22;;
22250;SDS011;59348;52.158;5.588;2023-03-31T04:43:20;9.73;;;2.70;;
22250;SDS011;59348;52.158;5.588;2023-03-31T04:45:47;10.30;;;3.63;;
22250;SDS011;59348;52.158;5.588;2023-03-31T04:48:14;8.27;;;3.00;;
22250;SDS011;59348;52.158;5.588;2023-03-31T04:50:42;13.52;;;3.30;;
22250;SDS011;59348;52.158;5.588;2023-03-31T04:53:09;12.55;;;3.40;;
22250;SDS011;59348;52.158;5.588;2023-03-31T04:55:36;8.70;;;3.35;;
22250;SDS011;59348;52.158;5.588;2023-03-31T04:58:03;9.23;;;3.70;;
22250;SDS011;59348;52.158;5.588;2023-03-31T05:00:32;14.65;;;3.92;;
22250;SDS011;59348;52.158;5.588;2023-03-31T05:02:59;14.63;;;4.15;;
22250;SDS011;59348;52.158;5.588;2023-03-31T05:05:27;13.98;;;4.28;;
22250;SDS011;59348;52.158;5.588;2023-03-31T05:07:54;13.93;;;3.90;;
22250;SDS011;59348;52.158;5.588;2023-03-31T05:10:22;14.50;;;4.35;;
22250;SDS011;59348;52.158;5.588;2023-03-31T05:12:49;15.52;;;3.95;;
22250;SDS011;59348;52.158;5.588;2023-03-31T05:15:16;13.57;;;4.28;;
22250;SDS011;59348;52.158;5.588;2023-03-31T05:17:45;9.60;;;3.80;;
22250;SDS011;59348;52.158;5.588;2023-03-31T05:20:13;13.57;;;3.85;;
22250;SDS011;59348;52.158;5.588;2023-03-31T05:22:40;11.30;;;3.85;;
22250;SDS011;59348;52.158;5.588;2023-03-31T05:25:08;10.00;;;3.70;;
22250;SDS011;59348;52.158;5.588;2023-03-31T05:27:38;13.20;;;3.28;;
22250;SDS011;59348;52.158;5.588;2023-03-31T05:30:06;13.65;;;3.20;;
22250;SDS011;59348;52.158;5.588;2023-03-31T05:32:33;10.57;;;3.00;;
22250;SDS011;59348;52.158;5.588;2023-03-31T05:35:02;13.38;;;3.65;;
22250;SDS011;59348;52.158;5.588;2023-03-31T05:37:29;13.43;;;3.13;;
22250;SDS011;59348;52.158;5.588;2023-03-31T05:39:57;8.77;;;3.10;;
22250;SDS011;59348;52.158;5.588;2023-03-31T05:42:24;10.70;;;3.00;;
22250;SDS011;59348;52.158;5.588;2023-03-31T05:44:52;11.80;;;2.92;;
22250;SDS011;59348;52.158;5.588;2023-03-31T05:47:19;12.15;;;3.30;;
22250;SDS011;59348;52.158;5.588;2023-03-31T05:49:47;9.55;;;2.83;;
22250;SDS011;59348;52.158;5.588;2023-03-31T05:52:16;9.98;;;2.85;;
22250;SDS011;59348;52.158;5.588;2023-03-31T05:54:43;10.82;;;2.97;;
22250;SDS011;59348;52.158;5.588;2023-03-31T05:57:11;8.82;;;2.90;;
22250;SDS011;59348;52.158;5.588;2023-03-31T05:59:38;11.35;;;2.70;;
22250;SDS011;59348;52.158;5.588;2023-03-31T06:02:06;11.73;;;2.88;;
22250;SDS011;59348;52.158;5.588;2023-03-31T06:04:34;11.93;;;3.40;;
22250;SDS011;59348;52.158;5.588;2023-03-31T06:07:01;10.70;;;2.78;;
22250;SDS011;59348;52.158;5.588;2023-03-31T06:09:30;10.85;;;2.97;;
22250;SDS011;59348;52.158;5.588;2023-03-31T06:11:58;14.15;;;3.00;;
22250;SDS011;59348;52.158;5.588;2023-03-31T06:14:26;12.73;;;2.80;;
22250;SDS011;59348;52.158;5.588;2023-03-31T06:16:53;12.02;;;2.78;;
22250;SDS011;59348;52.158;5.588;2023-03-31T06:19:20;8.45;;;1.92;;
22250;SDS011;59348;52.158;5.588;2023-03-31T06:21:48;10.70;;;2.80;;
22250;SDS011;59348;52.158;5.588;2023-03-31T06:24:16;9.70;;;2.40;;
22250;SDS011;59348;52.158;5.588;2023-03-31T06:26:44;9.27;;;2.22;;
22250;SDS011;59348;52.158;5.588;2023-03-31T06:29:12;8.40;;;2.35;;
22250;SDS011;59348;52.158;5.588;2023-03-31T06:31:39;11.43;;;2.70;;
22250;SDS011;59348;52.158;5.588;2023-03-31T06:34:06;8.02;;;2.10;;
22250;SDS011;59348;52.158;5.588;2023-03-31T06:36:33;9.95;;;2.63;;
22250;SDS011;59348;52.158;5.588;2023-03-31T06:39:01;12.38;;;2.45;;
22250;SDS011;59348;52.158;5.588;2023-03-31T06:41:28;7.75;;;2.25;;
22250;SDS011;59348;52.158;5.588;2023-03-31T06:43:57;8.00;;;2.35;;
22250;SDS011;59348;52.158;5.588;2023-03-31T06:46:24;8.85;;;2.28;;
22250;SDS011;59348;52.158;5.588;2023-03-31T06:48:51;5.80;;;2.25;;
22250;SDS011;59348;52.158;5.588;2023-03-31T06:51:19;9.15;;;2.13;;
22250;SDS011;59348;52.158;5.588;2023-03-31T06:53:46;6.65;;;2.08;;
22250;SDS011;59348;52.158;5.588;2023-03-31T06:56:14;5.43;;;2.00;;
22250;SDS011;59348;52.158;5.588;2023-03-31T06:58:41;8.88;;;1.90;;
22250;SDS011;59348;52.158;5.588;2023-03-31T07:01:10;4.85;;;1.77;;
22250;SDS011;59348;52.158;5.588;2023-03-31T07:03:37;6.63;;;1.70;;
22250;SDS011;59348;52.158;5.588;2023-03-31T07:06:04;6.70;;;1.52;;
22250;SDS011;59348;52.158;5.588;2023-03-31T07:08:32;8.13;;;1.85;;
22250;SDS011;59348;52.158;5.588;2023-03-31T07:11:00;7.35;;;1.65;;
22250;SDS011;59348;52.158;5.588;2023-03-31T07:13:28;6.55;;;1.52;;
22250;SDS011;59348;52.158;5.588;2023-03-31T07:15:55;5.30;;;1.40;;
22250;SDS011;59348;52.158;5.588;2023-03-31T07:18:24;5.82;;;1.70;;
22250;SDS011;59348;52.158;5.588;2023-03-31T07:20:56;5.40;;;1.60;;
22250;SDS011;59348;52.158;5.588;2023-03-31T07:23:23;5.75;;;1.40;;
22250;SDS011;59348;52.158;5.588;2023-03-31T07:25:50;4.50;;;1.40;;
22250;SDS011;59348;52.158;5.588;2023-03-31T07:28:18;4.75;;;1.42;;
22250;SDS011;59348;52.158;5.588;2023-03-31T07:30:45;6.40;;;1.60;;
22250;SDS011;59348;52.158;5.588;2023-03-31T07:33:12;5.18;;;1.40;;
22250;SDS011;59348;52.158;5.588;2023-03-31T07:35:41;6.55;;;1.55;;
22250;SDS011;59348;52.158;5.588;2023-03-31T07:38:08;5.78;;;1.73;;
22250;SDS011;59348;52.158;5.588;2023-03-31T07:40:37;6.32;;;1.60;;
22250;SDS011;59348;52.158;5.588;2023-03-31T07:43:04;5.22;;;1.60;;
22250;SDS011;59348;52.158;5.588;2023-03-31T07:45:32;6.05;;;1.73;;
22250;SDS011;59348;52.158;5.588;2023-03-31T07:48:00;6.38;;;1.80;;
22250;SDS011;59348;52.158;5.588;2023-03-31T07:50:27;5.68;;;1.50;;
22250;SDS011;59348;52.158;5.588;2023-03-31T07:52:56;5.43;;;1.58;;
22250;SDS011;59348;52.158;5.588;2023-03-31T07:55:23;6.50;;;1.88;;
22250;SDS011;59348;52.158;5.588;2023-03-31T07:57:51;6.65;;;1.90;;
22250;SDS011;59348;52.158;5.588;2023-03-31T08:00:19;7.22;;;2.35;;
22250;SDS011;59348;52.158;5.588;2023-03-31T08:02:46;8.18;;;2.28;;
22250;SDS011;59348;52.158;5.588;2023-03-31T08:05:14;5.85;;;1.75;;
22250;SDS011;59348;52.158;5.588;2023-03-31T08:07:43;5.05;;;1.70;;
22250;SDS011;59348;52.158;5.588;2023-03-31T08:10:13;10.32;;;2.00;;
22250;SDS011;59348;52.158;5.588;2023-03-31T08:12:41;6.50;;;1.90;;
22250;SDS011;59348;52.158;5.588;2023-03-31T08:15:08;6.07;;;2.17;;
22250;SDS011;59348;52.158;5.588;2023-03-31T08:17:36;8.80;;;2.00;;
22250;SDS011;59348;52.158;5.588;2023-03-31T08:20:04;6.85;;;1.90;;
22250;SDS011;59348;52.158;5.588;2023-03-31T08:22:33;4.63;;;1.77;;
22250;SDS011;59348;52.158;5.588;2023-03-31T08:25:00;6.88;;;2.00;;
22250;SDS011;59348;52.158;5.588;2023-03-31T08:27:31;5.57;;;2.22;;
22250;SDS011;59348;52.158;5.588;2023-03-31T08:29:58;4.75;;;2.10;;
22250;SDS011;59348;52.158;5.588;2023-03-31T08:32:28;9.60;;;2.20;;
22250;SDS011;59348;52.158;5.588;2023-03-31T08:34:56;6.85;;;2.08;;
22250;SDS011;59348;52.158;5.588;2023-03-31T08:37:23;5.55;;;2.40;;
22250;SDS011;59348;52.158;5.588;2023-03-31T08:39:52;7.40;;;2.30;;
22250;SDS011;59348;52.158;5.588;2023-03-31T08:42:20;5.93;;;2.30;;
22250;SDS011;59348;52.158;5.588;2023-03-31T08:44:56;9.35;;;2.50;;
22250;SDS011;59348;52.158;5.588;2023-03-31T08:47:24;6.53;;;2.40;;
22250;SDS011;59348;52.158;5.588;2023-03-31T08:49:52;8.27;;;2.50;;
22250;SDS011;59348;52.158;5.588;2023-03-31T08:52:22;12.13;;;2.58;;
22250;SDS011;59348;52.158;5.588;2023-03-31T08:54:51;8.15;;;2.70;;
22250;SDS011;59348;52.158;5.588;2023-03-31T08:57:22;9.85;;;2.50;;
22250;SDS011;59348;52.158;5.588;2023-03-31T08:59:51;8.38;;;2.90;;
22250;SDS011;59348;52.158;5.588;2023-03-31T09:02:26;8.02;;;2.80;;
22250;SDS011;59348;52.158;5.588;2023-03-31T09:04:59;15.45;;;2.95;;
22250;SDS011;59348;52.158;5.588;2023-03-31T09:07:33;11.70;;;3.05;;
22250;SDS011;59348;52.158;5.588;2023-03-31T09:10:06;10.27;;;3.00;;
22250;SDS011;59348;52.158;5.588;2023-03-31T09:12:38;13.23;;;3.63;;
22250;SDS011;59348;52.158;5.588;2023-03-31T09:15:08;16.70;;;3.55;;
22250;SDS011;59348;52.158;5.588;2023-03-31T09:17:39;15.52;;;4.10;;
22250;SDS011;59348;52.158;5.588;2023-03-31T09:20:11;13.45;;;3.63;;
22250;SDS011;59348;52.158;5.588;2023-03-31T09:22:39;14.23;;;3.97;;
22250;SDS011;59348;52.158;5.588;2023-03-31T09:25:09;17.77;;;5.30;;
22250;SDS011;59348;52.158;5.588;2023-03-31T09:27:38;14.65;;;4.20;;
22250;SDS011;59348;52.158;5.588;2023-03-31T09:30:09;16.08;;;4.30;;
22250;SDS011;59348;52.158;5.588;2023-03-31T09:32:40;19.75;;;5.43;;
22250;SDS011;59348;52.158;5.588;2023-03-31T09:35:13;22.80;;;5.70;;
22250;SDS011;59348;52.158;5.588;2023-03-31T09:37:41;18.45;;;4.25;;
22250;SDS011;59348;52.158;5.588;2023-03-31T09:40:12;17.75;;;4.40;;
22250;SDS011;59348;52.158;5.588;2023-03-31T09:42:41;16.80;;;4.30;;
22250;SDS011;59348;52.158;5.588;2023-03-31T09:45:12;15.40;;;4.00;;
22250;SDS011;59348;52.158;5.588;2023-03-31T09:47:41;14.65;;;4.05;;
22250;SDS011;59348;52.158;5.588;2023-03-31T09:50:10;20.60;;;4.80;;
22250;SDS011;59348;52.158;5.588;2023-03-31T09:52:38;20.95;;;4.25;;
22250;SDS011;59348;52.158;5.588;2023-03-31T09:55:13;18.00;;;3.78;;
22250;SDS011;59348;52.158;5.588;2023-03-31T09:57:41;18.05;;;4.20;;
22250;SDS011;59348;52.158;5.588;2023-03-31T10:00:13;19.63;;;4.18;;
22250;SDS011;59348;52.158;5.588;2023-03-31T10:02:43;23.92;;;4.10;;
22250;SDS011;59348;52.158;5.588;2023-03-31T10:07:54;18.73;;;4.15;;
22250;SDS011;59348;52.158;5.588;2023-03-31T10:10:38;19.35;;;4.10;;
22250;SDS011;59348;52.158;5.588;2023-03-31T10:13:10;17.23;;;3.83;;
22250;SDS011;59348;52.158;5.588;2023-03-31T10:15:40;19.00;;;4.15;;
22250;SDS011;59348;52.158;5.588;2023-03-31T10:18:11;17.17;;;4.13;;
22250;SDS011;59348;52.158;5.588;2023-03-31T10:20:42;14.55;;;3.40;;
22250;SDS011;59348;52.158;5.588;2023-03-31T10:23:14;18.40;;;4.03;;
22250;SDS011;59348;52.158;5.588;2023-03-31T10:25:42;17.83;;;3.92;;
22250;SDS011;59348;52.158;5.588;2023-03-31T10:28:10;16.92;;;4.00;;
22250;SDS011;59348;52.158;5.588;2023-03-31T10:30:38;17.88;;;3.80;;
22250;SDS011;59348;52.158;5.588;2023-03-31T10:33:08;15.10;;;3.67;;
22250;SDS011;59348;52.158;5.588;2023-03-31T10:35:39;15.20;;;3.20;;
22250;SDS011;59348;52.158;5.588;2023-03-31T10:38:09;12.65;;;3.58;;
22250;SDS011;59348;52.158;5.588;2023-03-31T10:40:37;16.27;;;4.10;;
22250;SDS011;59348;52.158;5.588;2023-03-31T10:43:08;13.20;;;3.70;;
22250;SDS011;59348;52.158;5.588;2023-03-31T10:45:40;14.52;;;3.13;;
22250;SDS011;59348;52.158;5.588;2023-03-31T10:48:15;14.20;;;3.40;;
22250;SDS011;59348;52.158;5.588;2023-03-31T10:50:44;15.15;;;3.20;;
22250;SDS011;59348;52.158;5.588;2023-03-31T10:53:12;13.82;;;3.13;;
22250;SDS011;59348;52.158;5.588;2023-03-31T10:55:41;11.45;;;3.25;;
22250;SDS011;59348;52.158;5.588;2023-03-31T10:58:15;17.58;;;3.45;;
22250;SDS011;59348;52.158;5.588;2023-03-31T11:00:49;12.95;;;3.13;;
22250;SDS011;59348;52.158;5.588;2023-03-31T11:03:29;12.55;;;3.13;;
22250;SDS011;59348;52.158;5.588;2023-03-31T11:06:01;13.52;;;2.97;;
22250;SDS011;59348;52.158;5.588;2023-03-31T11:08:35;12.55;;;2.90;;
22250;SDS011;59348;52.158;5.588;2023-03-31T11:11:08;13.73;;;3.25;;
22250;SDS011;59348;52.158;5.588;2023-03-31T11:13:38;14.00;;;3.03;;
22250;SDS011;59348;52.158;5.588;2023-03-31T11:16:10;12.82;;;3.22;;
22250;SDS011;59348;52.158;5.588;2023-03-31T11:18:44;12.50;;;3.03;;
22250;SDS011;59348;52.158;5.588;2023-03-31T11:21:18;13.52;;;3.13;;
22250;SDS011;59348;52.158;5.588;2023-03-31T11:23:49;11.88;;;2.90;;
22250;SDS011;59348;52.158;5.588;2023-03-31T11:26:18;15.02;;;3.03;;
22250;SDS011;59348;52.158;5.588;2023-03-31T11:28:50;14.05;;;3.10;;
22250;SDS011;59348;52.158;5.588;2023-03-31T11:31:23;12.88;;;2.90;;
22250;SDS011;59348;52.158;5.588;2023-03-31T11:33:56;14.10;;;3.00;;
22250;SDS011;59348;52.158;5.588;2023-03-31T11:36:30;14.00;;;2.92;;
22250;SDS011;59348;52.158;5.588;2023-03-31T11:39:08;17.38;;;3.20;;
22250;SDS011;59348;52.158;5.588;2023-03-31T11:41:38;11.48;;;3.15;;
22250;SDS011;59348;52.158;5.588;2023-03-31T11:44:08;13.00;;;3.22;;
22250;SDS011;59348;52.158;5.588;2023-03-31T11:46:38;13.35;;;3.22;;
22250;SDS011;59348;52.158;5.588;2023-03-31T11:49:08;17.98;;;4.55;;
22250;SDS011;59348;52.158;5.588;2023-03-31T11:51:40;10.85;;;2.97;;
22250;SDS011;59348;52.158;5.588;2023-03-31T11:54:08;16.67;;;3.10;;
22250;SDS011;59348;52.158;5.588;2023-03-31T11:56:42;11.85;;;3.13;;
22250;SDS011;59348;52.158;5.588;2023-03-31T11:59:10;15.88;;;3.35;;
22250;SDS011;59348;52.158;5.588;2023-03-31T12:01:41;16.40;;;2.95;;
22250;SDS011;59348;52.158;5.588;2023-03-31T12:04:11;13.43;;;3.55;;
22250;SDS011;59348;52.158;5.588;2023-03-31T12:06:42;16.88;;;3.53;;
22250;SDS011;59348;52.158;5.588;2023-03-31T12:09:12;17.48;;;3.17;;
22250;SDS011;59348;52.158;5.588;2023-03-31T12:11:43;17.63;;;3.10;;
22250;SDS011;59348;52.158;5.588;2023-03-31T12:14:17;15.30;;;3.33;;
22250;SDS011;59348;52.158;5.588;2023-03-31T12:16:48;17.98;;;3.53;;
22250;SDS011;59348;52.158;5.588;2023-03-31T12:19:19;12.73;;;3.13;;
22250;SDS011;59348;52.158;5.588;2023-03-31T12:21:50;12.68;;;3.50;;
22250;SDS011;59348;52.158;5.588;2023-03-31T12:24:19;20.40;;;4.50;;
22250;SDS011;59348;52.158;5.588;2023-03-31T12:26:49;17.42;;;3.20;;
22250;SDS011;59348;52.158;5.588;2023-03-31T12:29:21;11.05;;;3.10;;
22250;SDS011;59348;52.158;5.588;2023-03-31T12:31:52;15.38;;;3.70;;
22250;SDS011;59348;52.158;5.588;2023-03-31T12:34:20;11.60;;;3.42;;
22250;SDS011;59348;52.158;5.588;2023-03-31T12:36:53;16.98;;;3.65;;
22250;SDS011;59348;52.158;5.588;2023-03-31T12:39:28;13.25;;;3.10;;
22250;SDS011;59348;52.158;5.588;2023-03-31T12:42:00;14.85;;;3.35;;
22250;SDS011;59348;52.158;5.588;2023-03-31T12:44:34;13.63;;;3.30;;
22250;SDS011;59348;52.158;5.588;2023-03-31T12:47:10;14.35;;;3.35;;
22250;SDS011;59348;52.158;5.588;2023-03-31T12:49:43;15.63;;;3.85;;
22250;SDS011;59348;52.158;5.588;2023-03-31T12:52:16;14.95;;;3.75;;
22250;SDS011;59348;52.158;5.588;2023-03-31T12:54:49;15.23;;;3.30;;
22250;SDS011;59348;52.158;5.588;2023-03-31T12:57:23;15.05;;;3.58;;
22250;SDS011;59348;52.158;5.588;2023-03-31T13:00:08;17.05;;;3.60;;
22250;SDS011;59348;52.158;5.588;2023-03-31T13:02:41;18.40;;;3.40;;
22250;SDS011;59348;52.158;5.588;2023-03-31T13:07:52;15.98;;;3.90;;
22250;SDS011;59348;52.158;5.588;2023-03-31T13:10:24;15.50;;;3.80;;
22250;SDS011;59348;52.158;5.588;2023-03-31T13:12:55;16.67;;;3.63;;
22250;SDS011;59348;52.158;5.588;2023-03-31T13:15:24;15.05;;;3.78;;
22250;SDS011;59348;52.158;5.588;2023-03-31T13:17:54;15.38;;;3.53;;
22250;SDS011;59348;52.158;5.588;2023-03-31T13:20:25;16.23;;;3.50;;
22250;SDS011;59348;52.158;5.588;2023-03-31T13:23:00;18.23;;;3.40;;
22250;SDS011;59348;52.158;5.588;2023-03-31T13:25:32;10.73;;;3.42;;
22250;SDS011;59348;52.158;5.588;2023-03-31T13:28:08;10.23;;;3.17;;
22250;SDS011;59348;52.158;5.588;2023-03-31T13:30:45;12.80;;;3.17;;
22250;SDS011;59348;52.158;5.588;2023-03-31T13:33:13;13.18;;;3.20;;
22250;SDS011;59348;52.158;5.588;2023-03-31T13:35:43;13.43;;;3.47;;
22250;SDS011;59348;52.158;5.588;2023-03-31T13:38:14;12.00;;;3.05;;
22250;SDS011;59348;52.158;5.588;2023-03-31T13:40:50;9.57;;;2.85;;
22250;SDS011;59348;52.158;5.588;2023-03-31T13:43:26;10.10;;;2.63;;
22250;SDS011;59348;52.158;5.588;2023-03-31T13:45:58;10.73;;;2.90;;
22250;SDS011;59348;52.158;5.588;2023-03-31T13:48:34;14.10;;;3.25;;
22250;SDS011;59348;52.158;5.588;2023-03-31T13:51:14;7.80;;;2.70;;
22250;SDS011;59348;52.158;5.588;2023-03-31T13:53:49;10.73;;;2.83;;
22250;SDS011;59348;52.158;5.588;2023-03-31T13:56:25;11.38;;;2.70;;
22250;SDS011;59348;52.158;5.588;2023-03-31T14:01:46;12.05;;;2.92;;
22250;SDS011;59348;52.158;5.588;2023-03-31T14:04:24;11.50;;;2.90;;
22250;SDS011;59348;52.158;5.588;2023-03-31T14:06:56;11.52;;;2.33;;
22250;SDS011;59348;52.158;5.588;2023-03-31T14:09:26;10.55;;;2.88;;
22250;SDS011;59348;52.158;5.588;2023-03-31T14:11:57;9.18;;;2.55;;
22250;SDS011;59348;52.158;5.588;2023-03-31T14:14:24;10.30;;;3.00;;
22250;SDS011;59348;52.158;5.588;2023-03-31T14:16:54;11.07;;;2.53;;
22250;SDS011;59348;52.158;5.588;2023-03-31T14:22:10;8.30;;;2.33;;
22250;SDS011;59348;52.158;5.588;2023-03-31T14:24:43;8.05;;;2.60;;
22250;SDS011;59348;52.158;5.588;2023-03-31T14:27:14;7.78;;;1.90;;
22250;SDS011;59348;52.158;5.588;2023-03-31T14:29:44;8.07;;;2.28;;
22250;SDS011;59348;52.158;5.588;2023-03-31T14:32:17;9.07;;;2.25;;
22250;SDS011;59348;52.158;5.588;2023-03-31T14:34:51;8.32;;;2.28;;
22250;SDS011;59348;52.158;5.588;2023-03-31T14:37:19;7.43;;;2.10;;
22250;SDS011;59348;52.158;5.588;2023-03-31T14:39:49;6.05;;;1.98;;
22250;SDS011;59348;52.158;5.588;2023-03-31T14:42:20;11.20;;;2.20;;
22250;SDS011;59348;52.158;5.588;2023-03-31T14:44:53;6.57;;;1.88;;
22250;SDS011;59348;52.158;5.588;2023-03-31T14:47:22;6.97;;;1.90;;
22250;SDS011;59348;52.158;5.588;2023-03-31T14:49:57;8.90;;;2.20;;
22250;SDS011;59348;52.158;5.588;2023-03-31T14:52:27;8.30;;;1.90;;
22250;SDS011;59348;52.158;5.588;2023-03-31T14:54:57;6.40;;;2.15;;
22250;SDS011;59348;52.158;5.588;2023-03-31T14:57:26;7.60;;;1.90;;
22250;SDS011;59348;52.158;5.588;2023-03-31T14:59:55;7.43;;;1.90;;
22250;SDS011;59348;52.158;5.588;2023-03-31T15:02:25;9.95;;;2.22;;
22250;SDS011;59348;52.158;5.588;2023-03-31T15:04:55;5.68;;;1.88;;
22250;SDS011;59348;52.158;5.588;2023-03-31T15:07:22;7.28;;;2.03;;
22250;SDS011;59348;52.158;5.588;2023-03-31T15:09:51;5.78;;;2.42;;
22250;SDS011;59348;52.158;5.588;2023-03-31T15:12:20;6.22;;;1.90;;
22250;SDS011;59348;52.158;5.588;2023-03-31T15:14:48;4.00;;;1.60;;